createdAt,value
2019-03-06T12:40:44.762Z,72.00
2019-03-06T12:41:44.672Z,72.00
2019-03-06T12:42:44.563Z,72.00
2019-03-06T12:43:16.413Z,72.00
2019-03-06T12:43:48.919Z,76.00
2019-03-06T12:44:48.973Z,76.00
2019-03-06T12:45:48.869Z,80.00
2019-03-06T12:46:48.840Z,80.00
2019-03-06T12:47:55.502Z,84.00
2019-03-06T12:48:48.747Z,84.00
2019-03-06T12:49:48.725Z,84.00
2019-03-06T12:50:55.330Z,88.00
2019-03-06T12:52:16.032Z,84.00
2019-03-06T12:52:48.738Z,80.00
2019-03-06T12:53:48.688Z,76.00
2019-03-06T12:54:48.693Z,76.00
2019-03-06T12:55:48.598Z,76.00
2019-03-06T12:56:48.543Z,72.00
2019-03-06T12:57:48.485Z,72.00
2019-03-06T12:58:48.435Z,72.00
2019-03-06T12:59:48.451Z,76.00
2019-03-06T13:00:48.330Z,72.00
2019-03-06T13:01:48.275Z,76.00
2019-03-06T13:02:48.225Z,72.00
2019-03-06T13:03:48.175Z,68.00
2019-03-06T13:04:48.129Z,68.00
2019-03-06T13:05:48.154Z,68.00
2019-03-06T13:06:48.049Z,72.00
2019-03-06T13:07:48.067Z,72.00
2019-03-06T13:08:50.749Z,76.00
2019-03-06T13:09:47.910Z,80.00
2019-03-06T13:10:47.872Z,80.00
2019-03-06T13:11:47.828Z,76.00
2019-03-06T13:12:47.785Z,76.00
2019-03-06T13:13:47.812Z,72.00
2019-03-06T13:14:47.691Z,72.00
2019-03-06T13:15:47.644Z,68.00
2019-03-06T13:16:47.603Z,64.00
2019-03-06T13:17:47.573Z,60.00
2019-03-06T13:18:47.586Z,60.00
2019-03-06T13:19:47.479Z,56.00
2019-03-06T13:20:47.447Z,56.00
2019-03-06T13:21:47.398Z,56.00
2019-03-06T13:22:47.425Z,56.00
2019-03-06T13:23:47.321Z,56.00
2019-03-06T13:24:47.307Z,56.00
2019-03-06T13:25:47.238Z,56.00
2019-03-06T13:26:47.263Z,52.00
2019-03-06T13:27:54.382Z,52.00
2019-03-06T13:28:47.097Z,52.00
2019-03-06T13:29:47.070Z,52.00
2019-03-06T13:30:47.031Z,48.00
2019-03-06T13:31:47.072Z,48.00
2019-03-06T13:32:46.941Z,48.00
2019-03-06T13:33:46.994Z,44.00
2019-03-06T13:34:50.661Z,44.00
2019-03-06T13:35:46.886Z,48.00
2019-03-06T13:36:46.764Z,48.00
2019-03-06T13:37:46.725Z,48.00
2019-03-06T13:38:54.765Z,48.00
2019-03-06T13:39:46.695Z,48.00
2019-03-06T13:40:46.611Z,44.00
2019-03-06T13:41:46.566Z,48.00
2019-03-06T13:42:46.538Z,48.00
2019-03-06T13:43:46.495Z,48.00
2019-03-06T13:44:46.525Z,48.00
2019-03-06T13:45:46.423Z,48.00
2019-03-06T13:46:46.389Z,48.00
2019-03-06T13:47:46.355Z,52.00
2019-03-06T13:48:46.322Z,48.00
2019-03-06T13:49:46.286Z,52.00
2019-03-06T13:50:46.316Z,52.00
2019-03-06T13:51:46.223Z,48.00
2019-03-06T13:52:46.252Z,48.00
2019-03-06T13:53:46.154Z,48.00
2019-03-06T13:54:46.186Z,48.00
2019-03-06T13:55:46.395Z,48.00
2019-03-06T13:56:46.045Z,52.00
2019-03-06T13:57:46.007Z,52.00
2019-03-06T13:58:45.969Z,48.00
2019-03-06T13:59:45.937Z,52.00
2019-03-06T14:00:45.967Z,52.00
2019-03-06T14:01:45.864Z,56.00
2019-03-06T14:02:45.892Z,56.00
2019-03-06T14:03:45.792Z,52.00
2019-03-06T14:04:45.755Z,52.00
2019-03-06T14:05:45.712Z,52.00
2019-03-06T14:06:45.739Z,52.00
2019-03-06T14:07:45.625Z,48.00
2019-03-06T14:08:45.580Z,48.00
2019-03-06T14:09:45.550Z,44.00
2019-03-06T14:10:45.588Z,44.00
2019-03-06T14:12:10.916Z,44.00
2019-03-06T14:13:10.799Z,44.00
2019-03-06T14:14:10.750Z,44.00
2019-03-06T14:15:10.700Z,44.00
2019-03-06T14:16:10.726Z,44.00
2019-03-06T14:17:10.686Z,44.00
2019-03-06T14:18:10.717Z,40.00
2019-03-06T14:19:10.674Z,44.00
2019-03-06T14:20:10.619Z,44.00
2019-03-06T14:21:10.519Z,44.00
2019-03-06T14:22:10.547Z,44.00
2019-03-06T14:23:10.440Z,48.00
2019-03-06T14:24:10.400Z,48.00
2019-03-06T14:25:10.358Z,48.00
2019-03-06T14:26:10.381Z,48.00
2019-03-06T14:27:10.277Z,48.00
2019-03-06T14:28:10.290Z,48.00
2019-03-06T14:29:10.240Z,48.00
2019-03-06T14:30:10.201Z,48.00
2019-03-06T14:31:10.745Z,48.00
2019-03-06T14:32:14.751Z,44.00
2019-03-06T14:33:10.008Z,48.00
2019-03-06T14:34:09.963Z,48.00
2019-03-06T14:35:09.990Z,48.00
2019-03-06T14:36:09.885Z,48.00
2019-03-06T14:37:09.895Z,48.00
2019-03-06T14:38:09.853Z,44.00
2019-03-06T14:39:09.738Z,44.00
2019-03-06T14:40:10.756Z,44.00
2019-03-06T14:41:09.645Z,44.00
2019-03-06T14:42:09.599Z,40.00
2019-03-06T14:43:09.620Z,44.00
2019-03-06T14:44:09.498Z,44.00
2019-03-06T14:45:09.451Z,44.00
2019-03-06T14:46:16.213Z,44.00
2019-03-06T14:47:09.343Z,40.00
2019-03-06T14:48:09.325Z,44.00
2019-03-06T14:49:09.342Z,40.00
2019-03-06T14:50:09.232Z,40.00
2019-03-06T14:51:09.190Z,40.00
2019-03-06T14:52:09.211Z,40.00
2019-03-06T14:53:09.106Z,40.00
2019-03-06T14:54:09.068Z,40.00
2019-03-06T14:55:09.026Z,40.00
2019-03-06T14:56:08.982Z,36.00
2019-03-06T14:57:08.948Z,40.00
2019-03-06T14:58:08.976Z,36.00
2019-03-06T14:59:08.952Z,36.00
2019-03-06T15:00:08.997Z,36.00
2019-03-06T15:01:08.817Z,36.00
2019-03-06T15:02:08.779Z,36.00
2019-03-06T15:03:08.737Z,36.00
2019-03-06T15:04:08.767Z,32.00
2019-03-06T15:05:08.725Z,32.00
2019-03-06T15:06:08.620Z,36.00
2019-03-06T15:07:08.577Z,36.00
2019-03-06T15:08:08.540Z,36.00
2019-03-06T15:09:08.506Z,36.00
2019-03-06T15:10:08.512Z,36.00
2019-03-06T15:11:08.409Z,32.00
2019-03-06T15:12:08.369Z,32.00
2019-03-06T15:13:08.331Z,36.00
2019-03-06T15:14:08.360Z,32.00
2019-03-06T15:15:08.238Z,32.00
2019-03-06T15:16:08.197Z,32.00
2019-03-06T15:17:08.154Z,28.00
2019-03-06T15:18:10.877Z,32.00
2019-03-06T15:19:08.050Z,32.00
2019-03-06T15:20:08.080Z,28.00
2019-03-06T15:21:07.967Z,32.00
2019-03-06T15:22:07.929Z,28.00
2019-03-06T15:23:07.897Z,28.00
2019-03-06T15:24:07.860Z,28.00
2019-03-06T15:25:09.079Z,28.00
2019-03-06T15:26:07.774Z,28.00
2019-03-06T15:27:07.719Z,28.00
2019-03-06T15:28:07.677Z,28.00
2019-03-06T15:29:07.633Z,28.00
2019-03-06T15:30:07.653Z,28.00
2019-03-06T15:31:07.545Z,28.00
2019-03-06T15:32:07.511Z,28.00
2019-03-06T15:33:07.450Z,24.00
2019-03-06T15:34:07.405Z,28.00
2019-03-06T15:35:07.360Z,28.00
2019-03-06T15:36:07.388Z,24.00
2019-03-06T15:37:07.314Z,24.00
2019-03-06T15:38:07.238Z,24.00
2019-03-06T15:39:07.203Z,24.00
2019-03-06T15:40:07.227Z,24.00
2019-03-06T15:41:07.118Z,24.00
2019-03-06T15:42:07.072Z,24.00
2019-03-06T15:43:07.039Z,24.00
2019-03-06T15:44:06.996Z,24.00
2019-03-06T15:45:06.962Z,20.00
2019-03-06T15:46:06.985Z,20.00
2019-03-06T15:47:06.879Z,20.00
2019-03-06T15:48:06.931Z,16.00
2019-03-06T15:49:06.811Z,20.00
2019-03-06T15:50:06.868Z,16.00
2019-03-06T15:51:06.732Z,16.00
2019-03-06T15:52:06.690Z,16.00
2019-03-06T15:53:06.674Z,16.00
2019-03-06T15:54:06.697Z,16.00
2019-03-06T15:55:06.571Z,12.00
2019-03-06T15:56:06.526Z,16.00
2019-03-06T15:57:06.488Z,12.00
2019-03-06T15:58:06.450Z,12.00
2019-03-06T15:59:14.732Z,12.00
2019-03-06T16:00:07.621Z,12.00
2019-03-06T16:01:06.327Z,12.00
2019-03-06T16:02:06.278Z,12.00
2019-03-06T16:03:06.234Z,8.00
2019-03-06T16:04:06.191Z,8.00
2019-03-06T16:05:06.204Z,12.00
2019-03-06T16:06:06.100Z,12.00
2019-03-06T16:07:06.046Z,8.00
2019-03-06T16:08:06.008Z,8.00
2019-03-06T16:09:06.026Z,8.00
2019-03-06T16:10:05.918Z,8.00
2019-03-06T16:11:05.878Z,8.00
2019-03-06T16:11:40.917Z,8.00
2019-03-06T16:12:12.304Z,8.00
2019-03-06T16:13:11.386Z,4.00
2019-03-06T16:14:11.267Z,28.00
2019-03-06T16:15:11.135Z,40.00
2019-03-06T16:16:11.143Z,40.00
2019-03-06T16:17:11.026Z,40.00
2019-03-06T16:18:11.007Z,40.00
2019-03-06T16:19:10.912Z,300.00
2019-03-06T16:20:10.922Z,292.00
2019-03-06T16:21:10.884Z,284.00
2019-03-06T16:22:10.757Z,288.00
2019-03-06T16:23:10.705Z,292.00
2019-03-06T16:24:10.647Z,280.00
2019-03-06T16:25:10.592Z,276.00
2019-03-06T16:26:10.537Z,276.00
2019-03-06T16:27:10.543Z,264.00
2019-03-06T16:28:27.279Z,264.00
2019-03-06T16:29:27.233Z,256.00
2019-03-06T16:30:27.180Z,252.00
2019-03-06T16:31:27.183Z,252.00
2019-03-06T16:32:28.042Z,264.00
2019-03-06T16:33:26.998Z,252.00
2019-03-06T16:34:26.934Z,256.00
2019-03-06T16:35:26.869Z,252.00
2019-03-06T16:36:28.065Z,252.00
2019-03-06T16:37:26.810Z,240.00
2019-03-06T16:38:26.678Z,24.00
2019-03-06T16:47:06.388Z,20.00
2019-03-06T16:47:58.556Z,24.00
2019-03-06T16:48:58.629Z,24.00
2019-03-06T16:49:58.547Z,24.00
2019-03-06T16:50:58.542Z,24.00
2019-03-06T16:51:58.529Z,24.00
2019-03-06T16:53:29.149Z,20.00
